sensor_id;sensor_type;location;lat;lon;timestamp;pressure;altitude;pressure_sealevel;temperature;humidity
61384;BME280;63511;49.346;8.798;2023-02-22T00:01:41;100188.16;;;5.50;76.50
61384;BME280;63511;49.346;8.798;2023-02-22T00:04:15;100176.94;;;5.66;75.45
61384;BME280;63511;49.346;8.798;2023-02-22T00:06:45;100184.84;;;5.80;75.70
61384;BME280;63511;49.346;8.798;2023-02-22T00:09:12;100187.31;;;5.60;75.73
61384;BME280;63511;49.346;8.798;2023-02-22T00:11:44;100189.00;;;5.31;78.09
61384;BME280;63511;49.346;8.798;2023-02-22T00:14:13;100180.78;;;5.42;77.57
61384;BME280;63511;49.346;8.798;2023-02-22T00:16:39;100168.78;;;5.58;74.84
61384;BME280;63511;49.346;8.798;2023-02-22T00:19:06;100183.50;;;5.45;75.71
61384;BME280;63511;49.346;8.798;2023-02-22T00:21:32;100181.91;;;5.55;75.49
61384;BME280;63511;49.346;8.798;2023-02-22T00:23:59;100180.78;;;5.52;75.60
61384;BME280;63511;49.346;8.798;2023-02-22T00:26:41;100169.91;;;5.62;76.63
61384;BME280;63511;49.346;8.798;2023-02-22T00:29:07;100179.56;;;5.67;76.53
61384;BME280;63511;49.346;8.798;2023-02-22T00:31:37;100173.41;;;5.43;76.53
61384;BME280;63511;49.346;8.798;2023-02-22T00:34:04;100164.03;;;5.71;75.45
61384;BME280;63511;49.346;8.798;2023-02-22T00:36:30;100169.53;;;5.57;77.00
61384;BME280;63511;49.346;8.798;2023-02-22T00:38:57;100167.38;;;5.51;76.75
61384;BME280;63511;49.346;8.798;2023-02-22T00:41:23;100167.97;;;5.39;77.28
61384;BME280;63511;49.346;8.798;2023-02-22T00:43:50;100160.81;;;5.23;77.87
61384;BME280;63511;49.346;8.798;2023-02-22T00:46:17;100162.06;;;5.18;78.05
61384;BME280;63511;49.346;8.798;2023-02-22T00:48:44;100162.47;;;5.04;78.69
61384;BME280;63511;49.346;8.798;2023-02-22T00:51:11;100165.38;;;5.37;76.57
61384;BME280;63511;49.346;8.798;2023-02-22T00:53:38;100153.47;;;5.45;76.43
61384;BME280;63511;49.346;8.798;2023-02-22T00:56:05;100147.59;;;5.54;76.14
61384;BME280;63511;49.346;8.798;2023-02-22T00:58:32;100141.97;;;5.47;76.18
61384;BME280;63511;49.346;8.798;2023-02-22T01:00:58;100135.22;;;5.56;75.94
61384;BME280;63511;49.346;8.798;2023-02-22T01:03:25;100129.47;;;5.57;76.90
61384;BME280;63511;49.346;8.798;2023-02-22T01:05:53;100144.16;;;5.24;77.90
61384;BME280;63511;49.346;8.798;2023-02-22T01:08:19;100144.94;;;5.33;78.36
61384;BME280;63511;49.346;8.798;2023-02-22T01:10:46;100140.72;;;5.52;75.98
61384;BME280;63511;49.346;8.798;2023-02-22T01:13:13;100135.81;;;5.33;75.62
61384;BME280;63511;49.346;8.798;2023-02-22T01:15:41;100139.28;;;5.25;76.96
61384;BME280;63511;49.346;8.798;2023-02-22T01:18:09;100141.59;;;5.03;78.86
61384;BME280;63511;49.346;8.798;2023-02-22T01:20:36;100133.91;;;5.31;77.56
61384;BME280;63511;49.346;8.798;2023-02-22T01:23:05;100131.72;;;5.44;76.48
61384;BME280;63511;49.346;8.798;2023-02-22T01:25:33;100128.31;;;5.33;76.57
61384;BME280;63511;49.346;8.798;2023-02-22T01:28:01;100131.91;;;5.27;77.48
61384;BME280;63511;49.346;8.798;2023-02-22T01:30:30;100129.44;;;4.98;78.76
61384;BME280;63511;49.346;8.798;2023-02-22T01:32:58;100127.16;;;4.91;78.76
61384;BME280;63511;49.346;8.798;2023-02-22T01:35:26;100128.84;;;5.10;76.88
61384;BME280;63511;49.346;8.798;2023-02-22T01:37:53;100119.44;;;5.08;77.23
61384;BME280;63511;49.346;8.798;2023-02-22T01:40:23;100124.97;;;5.14;77.12
61384;BME280;63511;49.346;8.798;2023-02-22T01:42:51;100119.41;;;5.27;76.60
61384;BME280;63511;49.346;8.798;2023-02-22T01:45:41;100123.41;;;5.35;75.74
61384;BME280;63511;49.346;8.798;2023-02-22T01:48:11;100118.59;;;5.07;76.73
61384;BME280;63511;49.346;8.798;2023-02-22T01:50:39;100127.47;;;4.75;78.75
61384;BME280;63511;49.346;8.798;2023-02-22T01:53:08;100117.38;;;5.12;77.31
61384;BME280;63511;49.346;8.798;2023-02-22T01:55:38;100114.72;;;5.11;76.82
61384;BME280;63511;49.346;8.798;2023-02-22T01:58:06;100108.25;;;4.84;78.11
61384;BME280;63511;49.346;8.798;2023-02-22T02:00:33;100119.69;;;4.72;78.79
61384;BME280;63511;49.346;8.798;2023-02-22T02:03:02;100112.50;;;4.85;77.89
61384;BME280;63511;49.346;8.798;2023-02-22T02:05:31;100110.81;;;5.04;76.74
61384;BME280;63511;49.346;8.798;2023-02-22T02:08:04;100114.00;;;4.83;77.92
61384;BME280;63511;49.346;8.798;2023-02-22T02:10:33;100112.97;;;4.71;78.80
61384;BME280;63511;49.346;8.798;2023-02-22T02:13:01;100103.66;;;4.60;79.15
61384;BME280;63511;49.346;8.798;2023-02-22T02:15:31;100104.47;;;4.79;78.87
61384;BME280;63511;49.346;8.798;2023-02-22T02:17:59;100098.91;;;4.63;79.61
61384;BME280;63511;49.346;8.798;2023-02-22T02:20:31;100101.44;;;4.73;79.67
61384;BME280;63511;49.346;8.798;2023-02-22T02:23:07;100095.50;;;4.81;77.36
61384;BME280;63511;49.346;8.798;2023-02-22T02:26:13;100098.69;;;4.70;78.16
61384;BME280;63511;49.346;8.798;2023-02-22T02:29:15;100087.25;;;4.53;79.14
61384;BME280;63511;49.346;8.798;2023-02-22T02:32:05;100091.94;;;4.40;79.42
61384;BME280;63511;49.346;8.798;2023-02-22T02:34:48;100088.94;;;4.73;78.13
61384;BME280;63511;49.346;8.798;2023-02-22T02:37:20;100089.09;;;4.75;77.37
61384;BME280;63511;49.346;8.798;2023-02-22T02:39:56;100085.88;;;4.86;76.91
61384;BME280;63511;49.346;8.798;2023-02-22T02:42:30;100079.34;;;4.88;76.47
61384;BME280;63511;49.346;8.798;2023-02-22T02:45:03;100074.75;;;4.53;78.27
61384;BME280;63511;49.346;8.798;2023-02-22T02:47:39;100075.72;;;4.45;79.35
61384;BME280;63511;49.346;8.798;2023-02-22T02:50:09;100072.31;;;4.74;77.55
61384;BME280;63511;49.346;8.798;2023-02-22T02:52:38;100069.44;;;4.69;77.35
61384;BME280;63511;49.346;8.798;2023-02-22T02:55:07;100072.13;;;4.62;77.32
61384;BME280;63511;49.346;8.798;2023-02-22T02:57:35;100059.94;;;4.75;77.12
61384;BME280;63511;49.346;8.798;2023-02-22T03:00:03;100066.44;;;4.73;77.06
61384;BME280;63511;49.346;8.798;2023-02-22T03:02:44;100058.81;;;4.43;78.70
61384;BME280;63511;49.346;8.798;2023-02-22T03:05:35;100063.75;;;4.61;78.66
61384;BME280;63511;49.346;8.798;2023-02-22T03:08:10;100049.84;;;4.84;77.23
61384;BME280;63511;49.346;8.798;2023-02-22T03:10:47;100054.13;;;4.56;78.02
61384;BME280;63511;49.346;8.798;2023-02-22T03:13:24;100053.84;;;4.53;77.39
61384;BME280;63511;49.346;8.798;2023-02-22T03:16:05;100050.81;;;4.76;76.61
61384;BME280;63511;49.346;8.798;2023-02-22T03:18:48;100056.06;;;4.79;76.86
61384;BME280;63511;49.346;8.798;2023-02-22T03:21:22;100051.28;;;4.71;77.33
61384;BME280;63511;49.346;8.798;2023-02-22T03:23:57;100046.75;;;4.96;77.04
61384;BME280;63511;49.346;8.798;2023-02-22T03:26:30;100044.25;;;4.96;76.39
61384;BME280;63511;49.346;8.798;2023-02-22T03:28:59;100044.53;;;4.60;77.95
61384;BME280;63511;49.346;8.798;2023-02-22T03:31:33;100042.13;;;4.62;77.33
61384;BME280;63511;49.346;8.798;2023-02-22T03:34:07;100031.22;;;4.51;77.72
61384;BME280;63511;49.346;8.798;2023-02-22T03:36:38;100037.94;;;4.71;77.25
61384;BME280;63511;49.346;8.798;2023-02-22T03:39:09;100038.69;;;4.70;76.97
61384;BME280;63511;49.346;8.798;2023-02-22T03:41:42;100037.69;;;4.20;79.23
61384;BME280;63511;49.346;8.798;2023-02-22T03:44:12;100035.31;;;4.51;78.77
61384;BME280;63511;49.346;8.798;2023-02-22T03:46:41;100031.09;;;4.21;79.55
61384;BME280;63511;49.346;8.798;2023-02-22T03:49:13;100028.75;;;4.61;77.66
61384;BME280;63511;49.346;8.798;2023-02-22T03:51:44;100028.31;;;4.76;77.09
61384;BME280;63511;49.346;8.798;2023-02-22T03:54:11;100024.44;;;4.40;77.94
61384;BME280;63511;49.346;8.798;2023-02-22T03:56:43;100031.75;;;4.28;79.49
61384;BME280;63511;49.346;8.798;2023-02-22T03:59:14;100034.34;;;4.49;77.88
61384;BME280;63511;49.346;8.798;2023-02-22T04:01:41;100034.41;;;4.69;77.11
61384;BME280;63511;49.346;8.798;2023-02-22T04:04:07;100027.28;;;4.74;76.93
61384;BME280;63511;49.346;8.798;2023-02-22T04:06:35;100023.91;;;4.73;76.83
61384;BME280;63511;49.346;8.798;2023-02-22T04:09:02;100033.63;;;4.31;78.96
61384;BME280;63511;49.346;8.798;2023-02-22T04:11:29;100031.72;;;4.00;79.86
61384;BME280;63511;49.346;8.798;2023-02-22T04:13:55;100038.84;;;4.53;78.18
61384;BME280;63511;49.346;8.798;2023-02-22T04:16:22;100036.56;;;4.46;77.43
61384;BME280;63511;49.346;8.798;2023-02-22T04:18:49;100038.81;;;4.43;77.25
61384;BME280;63511;49.346;8.798;2023-02-22T04:21:15;100036.97;;;4.21;78.03
61384;BME280;63511;49.346;8.798;2023-02-22T04:23:43;100030.38;;;4.32;78.78
61384;BME280;63511;49.346;8.798;2023-02-22T04:26:10;100030.22;;;4.49;77.62
61384;BME280;63511;49.346;8.798;2023-02-22T04:28:36;100028.31;;;4.47;77.34
61384;BME280;63511;49.346;8.798;2023-02-22T04:31:03;100029.38;;;4.59;77.03
61384;BME280;63511;49.346;8.798;2023-02-22T04:33:29;100029.13;;;4.27;78.63
61384;BME280;63511;49.346;8.798;2023-02-22T04:35:56;100036.88;;;4.30;78.90
61384;BME280;63511;49.346;8.798;2023-02-22T04:38:23;100040.91;;;4.38;78.21
61384;BME280;63511;49.346;8.798;2023-02-22T04:40:52;100040.69;;;4.16;78.13
61384;BME280;63511;49.346;8.798;2023-02-22T04:43:20;100039.16;;;4.08;79.14
61384;BME280;63511;49.346;8.798;2023-02-22T04:45:47;100039.38;;;4.30;78.88
61384;BME280;63511;49.346;8.798;2023-02-22T04:48:13;100039.19;;;4.47;77.82
61384;BME280;63511;49.346;8.798;2023-02-22T04:50:40;100025.81;;;4.47;76.99
61384;BME280;63511;49.346;8.798;2023-02-22T04:53:06;100042.53;;;4.38;77.60
61384;BME280;63511;49.346;8.798;2023-02-22T04:55:33;100037.78;;;4.12;79.55
61384;BME280;63511;49.346;8.798;2023-02-22T04:58:01;100032.00;;;4.03;79.11
61384;BME280;63511;49.346;8.798;2023-02-22T05:00:27;100032.06;;;4.13;78.31
61384;BME280;63511;49.346;8.798;2023-02-22T05:02:54;100028.28;;;4.37;77.74
61384;BME280;63511;49.346;8.798;2023-02-22T05:05:21;100033.28;;;4.37;77.16
61384;BME280;63511;49.346;8.798;2023-02-22T05:07:48;100019.38;;;4.30;77.56
61384;BME280;63511;49.346;8.798;2023-02-22T05:10:16;100017.78;;;4.41;77.55
61384;BME280;63511;49.346;8.798;2023-02-22T05:12:42;100026.81;;;4.39;77.47
61384;BME280;63511;49.346;8.798;2023-02-22T05:15:15;100022.66;;;4.10;78.93
61384;BME280;63511;49.346;8.798;2023-02-22T05:17:42;100024.22;;;4.18;77.62
61384;BME280;63511;49.346;8.798;2023-02-22T05:20:15;100022.31;;;4.16;78.26
61384;BME280;63511;49.346;8.798;2023-02-22T05:22:42;100032.44;;;4.17;77.65
61384;BME280;63511;49.346;8.798;2023-02-22T05:25:09;100030.81;;;3.99;78.98
61384;BME280;63511;49.346;8.798;2023-02-22T05:27:36;100031.16;;;4.12;78.03
61384;BME280;63511;49.346;8.798;2023-02-22T05:30:04;100020.44;;;4.13;76.47
61384;BME280;63511;49.346;8.798;2023-02-22T05:32:34;100031.66;;;3.90;78.31
61384;BME280;63511;49.346;8.798;2023-02-22T05:35:01;100024.03;;;3.69;79.77
61384;BME280;63511;49.346;8.798;2023-02-22T05:37:27;100025.56;;;3.96;78.81
61384;BME280;63511;49.346;8.798;2023-02-22T05:39:54;100026.94;;;3.93;78.73
61384;BME280;63511;49.346;8.798;2023-02-22T05:42:20;100027.25;;;4.06;77.73
61384;BME280;63511;49.346;8.798;2023-02-22T05:44:47;100025.25;;;3.83;79.62
61384;BME280;63511;49.346;8.798;2023-02-22T05:47:14;100024.50;;;3.84;79.65
61384;BME280;63511;49.346;8.798;2023-02-22T05:49:42;100018.34;;;3.99;78.63
61384;BME280;63511;49.346;8.798;2023-02-22T05:52:08;100028.34;;;4.18;77.70
61384;BME280;63511;49.346;8.798;2023-02-22T05:54:35;100025.03;;;3.90;78.83
61384;BME280;63511;49.346;8.798;2023-02-22T05:57:01;100020.66;;;3.88;79.17
61384;BME280;63511;49.346;8.798;2023-02-22T05:59:28;100025.31;;;3.93;78.28
61384;BME280;63511;49.346;8.798;2023-02-22T06:01:55;100022.53;;;3.90;78.62
61384;BME280;63511;49.346;8.798;2023-02-22T06:04:21;100025.66;;;3.88;78.09
61384;BME280;63511;49.346;8.798;2023-02-22T06:06:49;100021.13;;;4.02;78.08
61384;BME280;63511;49.346;8.798;2023-02-22T06:09:16;100025.78;;;4.08;77.86
61384;BME280;63511;49.346;8.798;2023-02-22T06:11:42;100022.59;;;4.19;77.19
61384;BME280;63511;49.346;8.798;2023-02-22T06:14:09;100015.84;;;4.18;77.14
61384;BME280;63511;49.346;8.798;2023-02-22T06:16:36;100023.56;;;3.92;78.95
61384;BME280;63511;49.346;8.798;2023-02-22T06:19:02;100022.16;;;3.67;79.97
61384;BME280;63511;49.346;8.798;2023-02-22T06:21:29;100031.47;;;3.78;79.87
61384;BME280;63511;49.346;8.798;2023-02-22T06:23:57;100031.13;;;4.02;77.96
61384;BME280;63511;49.346;8.798;2023-02-22T06:26:23;100027.66;;;4.10;77.54
61384;BME280;63511;49.346;8.798;2023-02-22T06:28:50;100019.75;;;4.06;77.48
61384;BME280;63511;49.346;8.798;2023-02-22T06:31:16;100028.03;;;4.15;76.80
61384;BME280;63511;49.346;8.798;2023-02-22T06:33:43;100038.53;;;4.30;76.94
61384;BME280;63511;49.346;8.798;2023-02-22T06:36:09;100044.09;;;4.27;77.42
61384;BME280;63511;49.346;8.798;2023-02-22T06:38:36;100042.25;;;4.06;78.40
61384;BME280;63511;49.346;8.798;2023-02-22T06:41:04;100036.06;;;4.21;78.13
61384;BME280;63511;49.346;8.798;2023-02-22T06:43:31;100041.44;;;4.44;77.40
61384;BME280;63511;49.346;8.798;2023-02-22T06:45:57;100041.66;;;4.08;79.00
61384;BME280;63511;49.346;8.798;2023-02-22T06:48:24;100048.19;;;4.16;78.80
61384;BME280;63511;49.346;8.798;2023-02-22T06:50:50;100051.59;;;4.27;77.21
61384;BME280;63511;49.346;8.798;2023-02-22T06:53:17;100049.00;;;4.36;76.55
61384;BME280;63511;49.346;8.798;2023-02-22T06:55:44;100040.72;;;4.26;77.38
61384;BME280;63511;49.346;8.798;2023-02-22T06:58:12;100065.06;;;4.19;78.93
61384;BME280;63511;49.346;8.798;2023-02-22T07:00:38;100056.00;;;4.30;78.37
61384;BME280;63511;49.346;8.798;2023-02-22T07:03:05;100051.63;;;4.56;76.99
61384;BME280;63511;49.346;8.798;2023-02-22T07:05:31;100045.63;;;4.54;76.87
61384;BME280;63511;49.346;8.798;2023-02-22T07:08:02;100053.16;;;4.64;77.33
61384;BME280;63511;49.346;8.798;2023-02-22T07:10:31;100050.50;;;4.62;77.50
61384;BME280;63511;49.346;8.798;2023-02-22T07:12:58;100072.13;;;4.62;77.87
61384;BME280;63511;49.346;8.798;2023-02-22T07:15:28;100055.50;;;4.62;77.58
61384;BME280;63511;49.346;8.798;2023-02-22T07:17:55;100069.47;;;4.79;77.94
61384;BME280;63511;49.346;8.798;2023-02-22T07:20:22;100072.53;;;5.05;76.94
61384;BME280;63511;49.346;8.798;2023-02-22T07:22:49;100063.16;;;5.13;76.80
61384;BME280;63511;49.346;8.798;2023-02-22T07:25:16;100070.28;;;5.08;76.37
61384;BME280;63511;49.346;8.798;2023-02-22T07:27:43;100065.03;;;5.05;77.06
61384;BME280;63511;49.346;8.798;2023-02-22T07:30:15;100062.34;;;4.84;78.41
61384;BME280;63511;49.346;8.798;2023-02-22T07:32:44;100063.59;;;5.28;77.46
61384;BME280;63511;49.346;8.798;2023-02-22T07:35:15;100066.34;;;5.41;76.66
61384;BME280;63511;49.346;8.798;2023-02-22T07:37:41;100068.06;;;5.22;78.77
61384;BME280;63511;49.346;8.798;2023-02-22T07:40:09;100056.53;;;5.13;78.68
61384;BME280;63511;49.346;8.798;2023-02-22T07:42:50;100057.56;;;5.36;78.39
61384;BME280;63511;49.346;8.798;2023-02-22T07:45:16;100058.22;;;5.64;76.53
61384;BME280;63511;49.346;8.798;2023-02-22T07:47:46;100063.09;;;5.52;78.58
61384;BME280;63511;49.346;8.798;2023-02-22T07:50:13;100049.31;;;5.77;76.76
61384;BME280;63511;49.346;8.798;2023-02-22T07:52:44;100060.72;;;5.84;77.38
61384;BME280;63511;49.346;8.798;2023-02-22T07:55:10;100058.44;;;5.97;76.89
61384;BME280;63511;49.346;8.798;2023-02-22T07:57:37;100056.31;;;5.41;79.21
61384;BME280;63511;49.346;8.798;2023-02-22T08:00:04;100056.31;;;5.61;78.82
61384;BME280;63511;49.346;8.798;2023-02-22T08:02:31;100049.19;;;5.35;80.22
61384;BME280;63511;49.346;8.798;2023-02-22T08:04:59;100053.69;;;5.49;79.83
61384;BME280;63511;49.346;8.798;2023-02-22T08:07:26;100048.06;;;5.92;77.96
61384;BME280;63511;49.346;8.798;2023-02-22T08:09:52;100055.97;;;6.39;77.07
61384;BME280;63511;49.346;8.798;2023-02-22T08:12:19;100047.53;;;6.07;78.40
61384;BME280;63511;49.346;8.798;2023-02-22T08:14:46;100050.28;;;6.10;78.97
61384;BME280;63511;49.346;8.798;2023-02-22T08:17:12;100056.47;;;5.93;79.91
61384;BME280;63511;49.346;8.798;2023-02-22T08:19:39;100053.06;;;5.92;79.93
61384;BME280;63511;49.346;8.798;2023-02-22T08:22:07;100047.78;;;6.10;79.48
61384;BME280;63511;49.346;8.798;2023-02-22T08:24:34;100044.63;;;6.12;80.12
61384;BME280;63511;49.346;8.798;2023-02-22T08:27:01;100035.97;;;6.19;79.17
61384;BME280;63511;49.346;8.798;2023-02-22T08:29:27;100029.78;;;6.35;78.96
61384;BME280;63511;49.346;8.798;2023-02-22T08:31:57;100040.88;;;6.49;78.46
61384;BME280;63511;49.346;8.798;2023-02-22T08:34:24;100045.25;;;6.62;79.14
61384;BME280;63511;49.346;8.798;2023-02-22T08:36:51;100030.31;;;6.85;77.74
61384;BME280;63511;49.346;8.798;2023-02-22T08:39:19;100019.38;;;6.84;79.04
61384;BME280;63511;49.346;8.798;2023-02-22T08:41:46;100038.28;;;6.69;79.45
61384;BME280;63511;49.346;8.798;2023-02-22T08:44:12;100043.78;;;6.75;80.43
61384;BME280;63511;49.346;8.798;2023-02-22T08:46:39;100032.94;;;6.87;79.54
61384;BME280;63511;49.346;8.798;2023-02-22T08:49:06;100042.50;;;6.80;80.49
61384;BME280;63511;49.346;8.798;2023-02-22T08:51:33;100042.78;;;6.95;80.10
61384;BME280;63511;49.346;8.798;2023-02-22T08:54:00;100036.06;;;6.84;80.55
61384;BME280;63511;49.346;8.798;2023-02-22T08:56:29;100044.53;;;7.40;79.65
61384;BME280;63511;49.346;8.798;2023-02-22T08:58:55;100038.16;;;7.33;79.63
61384;BME280;63511;49.346;8.798;2023-02-22T09:01:23;100033.47;;;7.83;78.30
61384;BME280;63511;49.346;8.798;2023-02-22T09:03:50;100023.09;;;8.25;76.82
61384;BME280;63511;49.346;8.798;2023-02-22T09:06:17;100040.47;;;7.98;77.35
61384;BME280;63511;49.346;8.798;2023-02-22T09:08:44;100039.94;;;8.14;77.33
61384;BME280;63511;49.346;8.798;2023-02-22T09:11:10;100037.97;;;8.45;76.46
61384;BME280;63511;49.346;8.798;2023-02-22T09:13:38;100034.28;;;8.40;76.86
61384;BME280;63511;49.346;8.798;2023-02-22T09:16:05;100023.16;;;8.84;75.54
61384;BME280;63511;49.346;8.798;2023-02-22T09:18:32;100030.31;;;9.03;76.31
61384;BME280;63511;49.346;8.798;2023-02-22T09:20:59;100028.09;;;9.08;74.88
61384;BME280;63511;49.346;8.798;2023-02-22T09:23:25;100013.47;;;9.27;74.45
61384;BME280;63511;49.346;8.798;2023-02-22T09:25:52;100020.59;;;9.46;74.77
61384;BME280;63511;49.346;8.798;2023-02-22T09:28:19;100007.47;;;9.38;74.14
61384;BME280;63511;49.346;8.798;2023-02-22T09:30:48;100013.59;;;9.42;74.24
61384;BME280;63511;49.346;8.798;2023-02-22T09:33:17;100003.34;;;9.52;73.79
61384;BME280;63511;49.346;8.798;2023-02-22T09:35:45;100001.03;;;9.55;75.12
61384;BME280;63511;49.346;8.798;2023-02-22T09:38:14;100010.84;;;9.90;73.98
61384;BME280;63511;49.346;8.798;2023-02-22T09:40:45;100001.28;;;10.37;72.89
61384;BME280;63511;49.346;8.798;2023-02-22T09:43:36;100003.13;;;10.26;71.31
61384;BME280;63511;49.346;8.798;2023-02-22T09:46:17;100004.00;;;10.40;71.76
61384;BME280;63511;49.346;8.798;2023-02-22T09:48:55;99987.00;;;10.91;70.33
61384;BME280;63511;49.346;8.798;2023-02-22T09:51:25;99987.56;;;11.15;68.71
61384;BME280;63511;49.346;8.798;2023-02-22T09:53:57;99984.59;;;11.07;68.09
61384;BME280;63511;49.346;8.798;2023-02-22T09:56:26;99986.53;;;11.12;67.76
61384;BME280;63511;49.346;8.798;2023-02-22T09:58:59;99982.22;;;11.38;67.24
61384;BME280;63511;49.346;8.798;2023-02-22T10:01:31;99985.06;;;11.30;67.96
61384;BME280;63511;49.346;8.798;2023-02-22T10:04:04;99988.50;;;11.45;66.92
61384;BME280;63511;49.346;8.798;2023-02-22T10:06:34;99989.44;;;11.62;65.22
61384;BME280;63511;49.346;8.798;2023-02-22T10:09:10;99979.81;;;11.84;64.63
61384;BME280;63511;49.346;8.798;2023-02-22T10:11:50;99971.00;;;12.23;64.25
61384;BME280;63511;49.346;8.798;2023-02-22T10:17:31;99957.34;;;11.61;65.54
61384;BME280;63511;49.346;8.798;2023-02-22T10:20:10;99965.47;;;12.30;63.22
61384;BME280;63511;49.346;8.798;2023-02-22T10:22:48;99967.09;;;12.44;61.74
61384;BME280;63511;49.346;8.798;2023-02-22T10:25:19;99961.13;;;12.58;60.88
61384;BME280;63511;49.346;8.798;2023-02-22T10:27:54;99951.56;;;12.69;61.29
61384;BME280;63511;49.346;8.798;2023-02-22T10:30:23;99957.31;;;12.83;60.96
61384;BME280;63511;49.346;8.798;2023-02-22T10:32:56;99961.25;;;12.45;63.43
61384;BME280;63511;49.346;8.798;2023-02-22T10:35:26;99960.22;;;12.42;61.17
61384;BME280;63511;49.346;8.798;2023-02-22T10:37:57;99954.47;;;12.93;60.99
61384;BME280;63511;49.346;8.798;2023-02-22T10:40:25;99950.97;;;12.91;61.77
61384;BME280;63511;49.346;8.798;2023-02-22T10:43:00;99950.91;;;13.05;61.00
61384;BME280;63511;49.346;8.798;2023-02-22T10:45:28;99948.53;;;13.25;59.66
61384;BME280;63511;49.346;8.798;2023-02-22T10:48:00;99941.56;;;13.54;59.72
61384;BME280;63511;49.346;8.798;2023-02-22T10:50:33;99943.31;;;12.73;59.10
61384;BME280;63511;49.346;8.798;2023-02-22T10:53:00;99950.91;;;13.22;59.31
61384;BME280;63511;49.346;8.798;2023-02-22T10:55:28;99946.38;;;13.16;58.87
61384;BME280;63511;49.346;8.798;2023-02-22T10:58:00;99946.63;;;13.04;59.37
61384;BME280;63511;49.346;8.798;2023-02-22T11:00:30;99947.56;;;13.06;59.38
61384;BME280;63511;49.346;8.798;2023-02-22T11:03:01;99931.75;;;13.44;58.18
61384;BME280;63511;49.346;8.798;2023-02-22T11:05:32;99941.31;;;13.16;58.91
61384;BME280;63511;49.346;8.798;2023-02-22T11:08:28;99935.06;;;13.77;60.19
61384;BME280;63511;49.346;8.798;2023-02-22T11:11:00;99946.38;;;13.84;59.14
61384;BME280;63511;49.346;8.798;2023-02-22T11:13:30;99938.63;;;13.29;59.40
61384;BME280;63511;49.346;8.798;2023-02-22T11:16:00;99937.94;;;13.49;59.93
61384;BME280;63511;49.346;8.798;2023-02-22T11:18:32;99937.97;;;13.33;59.04
61384;BME280;63511;49.346;8.798;2023-02-22T11:21:01;99925.78;;;13.60;59.44
61384;BME280;63511;49.346;8.798;2023-02-22T11:23:28;99923.81;;;13.54;58.35
61384;BME280;63511;49.346;8.798;2023-02-22T11:26:05;99917.09;;;14.27;58.17
61384;BME280;63511;49.346;8.798;2023-02-22T11:28:33;99923.66;;;14.22;57.44
61384;BME280;63511;49.346;8.798;2023-02-22T11:31:12;99915.34;;;14.26;58.74
61384;BME280;63511;49.346;8.798;2023-02-22T11:33:45;99913.41;;;14.38;58.35
61384;BME280;63511;49.346;8.798;2023-02-22T11:36:29;99909.13;;;14.37;57.32
61384;BME280;63511;49.346;8.798;2023-02-22T11:38:56;99903.00;;;14.52;57.22
61384;BME280;63511;49.346;8.798;2023-02-22T11:41:32;99901.78;;;14.82;58.19
61384;BME280;63511;49.346;8.798;2023-02-22T11:44:13;99897.44;;;14.79;57.99
61384;BME280;63511;49.346;8.798;2023-02-22T11:46:57;99897.53;;;14.81;57.00
61384;BME280;63511;49.346;8.798;2023-02-22T11:49:34;99893.56;;;15.27;56.46
61384;BME280;63511;49.346;8.798;2023-02-22T11:52:16;99886.97;;;15.12;57.66
61384;BME280;63511;49.346;8.798;2023-02-22T11:55:07;99892.75;;;14.88;56.77
61384;BME280;63511;49.346;8.798;2023-02-22T11:57:54;99886.69;;;14.66;58.88
61384;BME280;63511;49.346;8.798;2023-02-22T12:03:33;99870.28;;;15.60;56.87
61384;BME280;63511;49.346;8.798;2023-02-22T12:06:38;99875.84;;;15.93;56.08
61384;BME280;63511;49.346;8.798;2023-02-22T12:09:12;99867.78;;;15.82;54.38
61384;BME280;63511;49.346;8.798;2023-02-22T12:11:49;99860.16;;;15.82;54.74
61384;BME280;63511;49.346;8.798;2023-02-22T12:14:25;99869.84;;;15.28;56.15
61384;BME280;63511;49.346;8.798;2023-02-22T12:17:09;99853.28;;;15.80;54.00
61384;BME280;63511;49.346;8.798;2023-02-22T12:19:40;99853.78;;;15.71;54.05
61384;BME280;63511;49.346;8.798;2023-02-22T12:22:14;99843.38;;;16.09;53.66
61384;BME280;63511;49.346;8.798;2023-02-22T12:24:46;99846.94;;;16.37;53.73
61384;BME280;63511;49.346;8.798;2023-02-22T12:27:18;99845.34;;;15.94;54.03
61384;BME280;63511;49.346;8.798;2023-02-22T12:29:49;99837.00;;;15.76;54.18
61384;BME280;63511;49.346;8.798;2023-02-22T12:32:24;99828.72;;;16.26;54.92
61384;BME280;63511;49.346;8.798;2023-02-22T12:35:02;99841.22;;;15.98;56.38
61384;BME280;63511;49.346;8.798;2023-02-22T12:37:38;99840.63;;;16.51;53.73
61384;BME280;63511;49.346;8.798;2023-02-22T12:40:13;99835.09;;;16.39;54.05
61384;BME280;63511;49.346;8.798;2023-02-22T12:42:46;99835.31;;;16.67;53.73
61384;BME280;63511;49.346;8.798;2023-02-22T12:45:23;99840.28;;;16.64;52.76
61384;BME280;63511;49.346;8.798;2023-02-22T12:47:56;99834.38;;;16.43;52.59
61384;BME280;63511;49.346;8.798;2023-02-22T12:50:28;99831.66;;;16.38;53.02
61384;BME280;63511;49.346;8.798;2023-02-22T12:53:06;99835.16;;;16.63;54.06
61384;BME280;63511;49.346;8.798;2023-02-22T12:55:41;99830.06;;;16.40;54.46
61384;BME280;63511;49.346;8.798;2023-02-22T12:58:17;99827.56;;;16.42;55.91
61384;BME280;63511;49.346;8.798;2023-02-22T13:00:50;99823.94;;;16.59;53.65
61384;BME280;63511;49.346;8.798;2023-02-22T13:03:28;99820.81;;;17.17;53.61
61384;BME280;63511;49.346;8.798;2023-02-22T13:06:01;99819.28;;;17.22;52.91
61384;BME280;63511;49.346;8.798;2023-02-22T13:08:36;99817.38;;;17.16;53.43
61384;BME280;63511;49.346;8.798;2023-02-22T13:11:13;99822.63;;;16.94;53.25
61384;BME280;63511;49.346;8.798;2023-02-22T13:13:49;99816.22;;;17.07;52.81
61384;BME280;63511;49.346;8.798;2023-02-22T13:16:26;99814.41;;;16.77;54.86
61384;BME280;63511;49.346;8.798;2023-02-22T13:19:00;99811.66;;;17.23;54.55
61384;BME280;63511;49.346;8.798;2023-02-22T13:21:35;99811.72;;;16.74;53.49
61384;BME280;63511;49.346;8.798;2023-02-22T13:24:18;99808.78;;;16.87;53.39